Аэропорт: Шереметьево. Москва

ICAO: UUEE

METAR:
2020-06-04 05:00:00
UUEE 040500Z 20005MPS 170V230 9999 OVC007 13/13 Q1000 R24L/290151 NOSIG
METAR:
2020-06-04 01:50:00
TAF UUEE 040150Z 0403/0503 03003G08MPS 6000 BKN005 TX18/0412Z TN12/0403Z TEMPO 0403/0406 1100 BR BKN002 BECMG 0406/0407 19006MPS FEW005 BKN016 TEMPO 0411/0420 20009G16MPS -TSRA SCT005 BKN016CB